createdAt,value
2022-10-12T00:01:26.213Z,102113.81
2022-10-12T00:03:53.968Z,102102.16
2022-10-12T00:06:23.222Z,102110.84
2022-10-12T00:08:52.416Z,102113.81
2022-10-12T00:11:22.811Z,102115.31
2022-10-12T00:13:50.648Z,102109.81
2022-10-12T00:16:19.837Z,102111.44
2022-10-12T00:18:51.050Z,102120.22
2022-10-12T00:21:19.008Z,102117.53
2022-10-12T00:23:47.117Z,102113.41
2022-10-12T00:26:16.425Z,102120.09
2022-10-12T00:28:45.907Z,102124.84
2022-10-12T00:31:15.672Z,102120.72
2022-10-12T00:33:43.363Z,102117.09
2022-10-12T00:36:17.633Z,102116.13
2022-10-12T00:38:47.137Z,102109.06
2022-10-12T00:41:15.990Z,102112.00
2022-10-12T00:43:45.649Z,102116.59
2022-10-12T00:46:17.490Z,102118.47
2022-10-12T00:48:46.138Z,102121.16
2022-10-12T00:51:14.045Z,102120.72
2022-10-12T00:53:44.508Z,102112.38
2022-10-12T00:56:17.886Z,102115.53
2022-10-12T00:58:47.032Z,102110.97
2022-10-12T01:01:14.705Z,102112.47
2022-10-12T01:03:43.199Z,102114.94
2022-10-12T01:06:10.860Z,102117.25
2022-10-12T01:08:39.100Z,102121.63
2022-10-12T01:11:07.113Z,102117.25
2022-10-12T01:13:34.868Z,102120.09
2022-10-12T01:16:08.664Z,102123.72
2022-10-12T01:18:42.795Z,102116.81
2022-10-12T01:21:18.359Z,102113.88
2022-10-12T01:24:15.804Z,102116.69
2022-10-12T01:27:10.949Z,102115.03
2022-10-12T01:30:05.545Z,102114.69
2022-10-12T01:32:40.552Z,102113.19
2022-10-12T01:35:11.529Z,102110.81
2022-10-12T01:37:46.409Z,102113.75
2022-10-12T01:40:17.520Z,102106.09
2022-10-12T01:42:45.492Z,102109.63
2022-10-12T01:45:15.632Z,102102.09
2022-10-12T01:47:48.559Z,102107.88
2022-10-12T01:50:18.649Z,102091.66
2022-10-12T01:52:54.001Z,102096.69
2022-10-12T01:55:30.001Z,102095.63
2022-10-12T01:58:11.668Z,102087.53
2022-10-12T02:00:43.494Z,102093.31
2022-10-12T02:03:17.397Z,102083.31
2022-10-12T02:05:47.373Z,102087.31
2022-10-12T02:08:19.309Z,102086.50
2022-10-12T02:10:50.064Z,102083.66
2022-10-12T02:13:21.341Z,102084.47
2022-10-12T02:15:49.371Z,102090.09
2022-10-12T02:18:19.440Z,102081.75
2022-10-12T02:20:47.895Z,102081.97
2022-10-12T02:23:16.040Z,102077.06
2022-10-12T02:25:43.894Z,102079.28
2022-10-12T02:28:13.226Z,102077.19
2022-10-12T02:30:46.416Z,102076.72
2022-10-12T02:33:16.284Z,102080.25
2022-10-12T02:35:50.826Z,102071.31
2022-10-12T02:38:21.207Z,102071.88
2022-10-12T02:40:54.245Z,102072.84
2022-10-12T02:43:24.597Z,102066.47
2022-10-12T02:45:53.921Z,102061.50
2022-10-12T02:48:24.039Z,102067.19
2022-10-12T02:50:55.780Z,102057.53
2022-10-12T02:53:24.537Z,102053.41
2022-10-12T02:55:54.297Z,102056.09
2022-10-12T02:58:21.948Z,102054.97
2022-10-12T03:00:49.679Z,102055.94
2022-10-12T03:03:17.416Z,102048.75
2022-10-12T03:05:45.070Z,102045.91
2022-10-12T03:08:14.089Z,102047.19
2022-10-12T03:10:41.737Z,102046.59
2022-10-12T03:13:09.796Z,102044.84
2022-10-12T03:15:37.480Z,102042.84
2022-10-12T03:18:05.371Z,102047.19
2022-10-12T03:20:33.022Z,102044.94
2022-10-12T03:23:00.699Z,102044.72
2022-10-12T03:25:29.861Z,102052.47
2022-10-12T03:27:57.519Z,102044.94
2022-10-12T03:30:25.199Z,102042.69
2022-10-12T03:32:52.820Z,102043.53
2022-10-12T03:35:20.472Z,102046.84
2022-10-12T03:37:48.120Z,102039.97
2022-10-12T03:40:16.001Z,102045.56
2022-10-12T03:42:44.980Z,102048.47
2022-10-12T03:45:12.643Z,102048.09
2022-10-12T03:47:40.664Z,102046.44
2022-10-12T03:50:09.316Z,102044.94
2022-10-12T03:52:37.061Z,102046.97
2022-10-12T03:55:05.216Z,102041.94
2022-10-12T03:57:32.996Z,102043.56
2022-10-12T04:00:03.592Z,102050.25
2022-10-12T04:02:31.237Z,102048.09
2022-10-12T04:04:59.576Z,102041.53
2022-10-12T04:07:27.221Z,102038.81
2022-10-12T04:09:54.856Z,102051.50
2022-10-12T04:12:22.505Z,102037.16
2022-10-12T04:14:50.160Z,102043.66
2022-10-12T04:17:19.449Z,102043.38
2022-10-12T04:19:47.135Z,102047.78
2022-10-12T04:22:15.413Z,102041.44
2022-10-12T04:24:43.069Z,102037.91
2022-10-12T04:27:10.892Z,102043.31
2022-10-12T04:29:38.678Z,102035.19
2022-10-12T04:32:12.205Z,102040.25
2022-10-12T04:34:41.740Z,102038.81
2022-10-12T04:37:09.461Z,102035.16
2022-10-12T04:39:37.309Z,102039.41
2022-10-12T04:42:07.047Z,102029.53
2022-10-12T04:44:34.761Z,102029.97
2022-10-12T04:47:03.090Z,102037.63
2022-10-12T04:49:30.824Z,102038.81
2022-10-12T04:51:59.826Z,102038.06
2022-10-12T04:54:27.503Z,102042.19
2022-10-12T04:56:55.181Z,102047.38
2022-10-12T04:59:22.828Z,102054.66
2022-10-12T05:01:50.671Z,102052.28
2022-10-12T05:04:18.507Z,102046.13
2022-10-12T05:06:46.184Z,102053.34
2022-10-12T05:09:17.125Z,102047.19
2022-10-12T05:11:45.097Z,102040.06
2022-10-12T05:14:12.928Z,102048.81
2022-10-12T05:16:40.793Z,102047.88
2022-10-12T05:19:08.666Z,102043.75
2022-10-12T05:21:36.313Z,102041.28
2022-10-12T05:24:04.198Z,102044.44
2022-10-12T05:26:33.283Z,102036.75
2022-10-12T05:29:03.505Z,102038.28
2022-10-12T05:31:31.249Z,102037.91
2022-10-12T05:33:58.898Z,102034.00
2022-10-12T05:36:26.672Z,102038.94
2022-10-12T05:38:54.376Z,102039.19
2022-10-12T05:41:22.032Z,102037.75
2022-10-12T05:43:51.057Z,102032.50
2022-10-12T05:46:18.716Z,102039.19
2022-10-12T05:48:46.377Z,102037.38
2022-10-12T05:51:14.048Z,102045.16
2022-10-12T05:53:41.669Z,102042.94
2022-10-12T05:56:09.356Z,102045.84
2022-10-12T05:58:37.024Z,102035.91
2022-10-12T06:01:07.815Z,102045.03
2022-10-12T06:03:36.240Z,102046.53
2022-10-12T06:06:06.335Z,102053.44
2022-10-12T06:08:34.925Z,102051.75
2022-10-12T06:11:05.379Z,102044.06
2022-10-12T06:13:33.153Z,102052.53
2022-10-12T06:16:00.832Z,102048.34
2022-10-12T06:18:29.862Z,102047.97
2022-10-12T06:21:21.380Z,102054.25
2022-10-12T06:23:45.249Z,102060.47
2022-10-12T06:26:12.928Z,102058.84
2022-10-12T06:28:40.663Z,102057.09
2022-10-12T06:31:08.405Z,102055.00
2022-10-12T06:33:37.538Z,102053.59
2022-10-12T06:36:05.771Z,102045.16
2022-10-12T06:38:33.448Z,102051.69
2022-10-12T06:41:01.095Z,102054.03
2022-10-12T06:43:28.897Z,102048.78
2022-10-12T06:46:00.425Z,102048.25
2022-10-12T06:48:28.299Z,102043.66
2022-10-12T06:50:57.605Z,102039.63
2022-10-12T06:53:28.512Z,102057.16
2022-10-12T06:55:56.317Z,102048.41
2022-10-12T06:58:24.120Z,102055.38
2022-10-12T07:00:52.274Z,102059.88
2022-10-12T07:03:20.257Z,102061.06
2022-10-12T07:05:47.992Z,102062.78
2022-10-12T07:08:17.604Z,102063.63
2022-10-12T07:10:45.240Z,102057.03
2022-10-12T07:13:13.072Z,102060.94
2022-10-12T07:15:40.721Z,102069.56
2022-10-12T07:18:08.400Z,102060.72
2022-10-12T07:20:36.044Z,102064.47
2022-10-12T07:23:05.723Z,102065.19
2022-10-12T07:25:34.717Z,102068.50
2022-10-12T07:28:05.175Z,102067.06
2022-10-12T07:30:33.066Z,102066.25
2022-10-12T07:33:00.740Z,102060.94
2022-10-12T07:35:28.426Z,102060.09
2022-10-12T07:37:56.094Z,102070.91
2022-10-12T07:40:23.750Z,102064.50
2022-10-12T07:43:14.789Z,102068.75
2022-10-12T07:45:41.229Z,102060.41
2022-10-12T07:48:08.881Z,102066.47
2022-10-12T07:50:36.649Z,102059.41
2022-10-12T07:53:04.340Z,102063.63
2022-10-12T07:55:32.613Z,102063.09
2022-10-12T07:58:02.980Z,102070.63
2022-10-12T08:00:31.446Z,102075.94
2022-10-12T08:02:59.253Z,102083.78
2022-10-12T08:05:27.787Z,102089.25
2022-10-12T08:07:55.753Z,102084.50
2022-10-12T08:10:23.724Z,102088.69
2022-10-12T08:12:52.385Z,102077.72
2022-10-12T08:15:21.500Z,102078.97
2022-10-12T08:17:49.161Z,102073.59
2022-10-12T08:20:17.016Z,102077.09
2022-10-12T08:22:44.665Z,102080.09
2022-10-12T08:25:12.379Z,102075.19
2022-10-12T08:27:40.355Z,102074.09
2022-10-12T08:30:09.414Z,102074.22
2022-10-12T08:32:38.417Z,102065.19
2022-10-12T08:35:06.784Z,102064.00
2022-10-12T08:37:34.457Z,102067.88
2022-10-12T08:40:03.522Z,102069.66
2022-10-12T08:42:44.342Z,102073.75
2022-10-12T08:45:30.455Z,102069.22
2022-10-12T08:48:03.080Z,102071.94
2022-10-12T08:50:33.285Z,102070.50
2022-10-12T08:53:03.681Z,102066.25
2022-10-12T08:55:36.445Z,102066.75
2022-10-12T08:58:04.293Z,102065.81
2022-10-12T09:03:15.776Z,102063.88
2022-10-12T09:05:46.967Z,102057.78
2022-10-12T09:08:25.200Z,102056.81
2022-10-12T09:11:03.004Z,102047.63
2022-10-12T09:13:39.465Z,102052.94
2022-10-12T09:16:13.790Z,102049.53
2022-10-12T09:18:44.881Z,102042.78
2022-10-12T09:21:17.421Z,102034.25
2022-10-12T09:23:45.597Z,102037.91
2022-10-12T09:26:16.599Z,102042.97
2022-10-12T09:28:46.166Z,102044.69
2022-10-12T09:31:34.888Z,102044.84
2022-10-12T09:34:06.633Z,102050.59
2022-10-12T09:36:36.654Z,102045.03
2022-10-12T09:39:06.372Z,102042.00
2022-10-12T09:41:35.940Z,102042.22
2022-10-12T09:44:05.052Z,102029.41
2022-10-12T09:46:39.893Z,102040.06
2022-10-12T09:49:08.995Z,102038.59
2022-10-12T09:51:36.814Z,102038.63
2022-10-12T09:54:05.606Z,102035.84
2022-10-12T09:56:39.604Z,102024.47
2022-10-12T09:59:09.291Z,102026.81
2022-10-12T10:01:37.146Z,102026.16
2022-10-12T10:04:12.911Z,102035.03
2022-10-12T10:06:42.570Z,102026.66
2022-10-12T10:09:27.828Z,102025.59
2022-10-12T10:11:55.518Z,102017.72
2022-10-12T10:14:23.251Z,102022.88
2022-10-12T10:16:52.860Z,102024.13
2022-10-12T10:19:24.912Z,102022.44
2022-10-12T10:21:53.720Z,102021.97
2022-10-12T10:24:26.866Z,102015.66
2022-10-12T10:26:56.621Z,102017.97
2022-10-12T10:29:34.259Z,102016.38
2022-10-12T10:32:12.482Z,102023.28
2022-10-12T10:34:42.337Z,102013.19
2022-10-12T10:37:15.714Z,102012.94
2022-10-12T10:39:47.091Z,102006.34
2022-10-12T10:42:20.991Z,102002.09
2022-10-12T10:44:51.111Z,102002.66
2022-10-12T10:47:19.404Z,102000.88
2022-10-12T10:49:50.514Z,102003.09
2022-10-12T10:52:23.750Z,102003.09
2022-10-12T10:55:07.121Z,101998.22
2022-10-12T10:57:35.697Z,101993.22
2022-10-12T11:00:36.812Z,101982.03
2022-10-12T11:02:56.233Z,101986.53
2022-10-12T11:05:29.656Z,101989.53
2022-10-12T11:07:58.661Z,101977.84
2022-10-12T11:10:29.773Z,101976.22
2022-10-12T11:13:03.020Z,101980.56
2022-10-12T11:15:35.526Z,101975.84
2022-10-12T11:18:09.311Z,101974.81
2022-10-12T11:20:49.030Z,101971.50
2022-10-12T11:23:23.228Z,101970.63
2022-10-12T11:26:06.536Z,101954.06
2022-10-12T11:28:34.738Z,101955.16
2022-10-12T11:31:03.230Z,101954.00
2022-10-12T11:33:38.192Z,101957.44
2022-10-12T11:36:11.000Z,101947.25
2022-10-12T11:38:41.897Z,101945.44
2022-10-12T11:41:34.791Z,101955.81
2022-10-12T11:44:02.736Z,101947.31
2022-10-12T11:46:34.680Z,101941.03
2022-10-12T11:49:04.207Z,101945.03
2022-10-12T11:51:33.193Z,101928.03
2022-10-12T11:54:03.976Z,101932.72
2022-10-12T11:56:34.637Z,101933.03
2022-10-12T11:59:04.413Z,101930.13
2022-10-12T12:01:56.690Z,101935.56
2022-10-12T12:04:41.766Z,101926.19
2022-10-12T12:07:45.620Z,101937.38
2022-10-12T12:10:45.121Z,101930.41
2022-10-12T12:13:22.839Z,101927.41
2022-10-12T12:16:33.392Z,101924.97
2022-10-12T12:19:38.053Z,101907.44
2022-10-12T12:22:24.414Z,101912.50
2022-10-12T12:24:56.879Z,101912.63
2022-10-12T12:27:31.418Z,101912.31
2022-10-12T12:29:59.566Z,101908.84
2022-10-12T12:32:27.840Z,101902.88
2022-10-12T12:35:00.735Z,101896.19
2022-10-12T12:37:33.002Z,101898.34
2022-10-12T12:40:02.012Z,101890.53
2022-10-12T12:42:32.027Z,101884.38
2022-10-12T12:45:34.858Z,101875.84
2022-10-12T12:48:02.533Z,101877.72
2022-10-12T12:50:34.922Z,101872.00
2022-10-12T12:53:07.647Z,101871.00
2022-10-12T12:55:47.218Z,101871.94
2022-10-12T12:58:26.033Z,101873.16
2022-10-12T13:01:05.079Z,101863.44
2022-10-12T13:03:49.840Z,101858.34
2022-10-12T13:06:37.993Z,101865.00
2022-10-12T13:09:21.820Z,101863.94
2022-10-12T13:12:07.935Z,101861.78
2022-10-12T13:15:04.703Z,101857.91
2022-10-12T13:17:44.789Z,101864.69
2022-10-12T13:20:18.476Z,101859.88
2022-10-12T13:22:47.957Z,101860.56
2022-10-12T13:25:23.070Z,101856.31
2022-10-12T13:27:53.856Z,101849.88
2022-10-12T13:30:28.013Z,101849.06
2022-10-12T13:32:58.931Z,101850.38
2022-10-12T13:35:31.738Z,101849.28
2022-10-12T13:38:04.675Z,101844.25
2022-10-12T13:40:34.626Z,101843.31
2022-10-12T13:43:28.515Z,101845.38
2022-10-12T13:45:56.603Z,101840.50
2022-10-12T13:48:46.605Z,101836.44
2022-10-12T13:51:24.601Z,101832.53
2022-10-12T13:53:52.268Z,101825.69
2022-10-12T13:56:21.865Z,101821.50
2022-10-12T13:58:51.839Z,101821.88
2022-10-12T14:01:19.550Z,101812.84
2022-10-12T14:03:47.265Z,101812.13
2022-10-12T14:06:27.889Z,101805.59
2022-10-12T14:08:57.202Z,101805.84
2022-10-12T14:11:26.122Z,101801.13
2022-10-12T14:13:55.469Z,101807.59
2022-10-12T14:16:23.187Z,101811.28
2022-10-12T14:18:51.561Z,101811.72
2022-10-12T14:21:23.425Z,101805.53
2022-10-12T14:23:53.042Z,101796.38
2022-10-12T14:26:26.392Z,101796.31
2022-10-12T14:28:55.988Z,101800.22
2022-10-12T14:32:00.279Z,101793.00
2022-10-12T14:34:36.265Z,101791.97
2022-10-12T14:37:05.725Z,101786.78
2022-10-12T14:39:34.001Z,101793.91
2022-10-12T14:42:03.960Z,101785.84
2022-10-12T14:44:42.971Z,101784.78
2022-10-12T14:47:18.203Z,101789.56
2022-10-12T14:49:47.412Z,101785.91
2022-10-12T14:52:19.157Z,101786.28
2022-10-12T14:54:50.884Z,101790.63
2022-10-12T14:57:19.347Z,101781.25
2022-10-12T14:59:48.705Z,101782.63
2022-10-12T15:02:18.112Z,101780.41
2022-10-12T15:04:46.060Z,101775.00
2022-10-12T15:07:16.610Z,101776.91
2022-10-12T15:09:44.583Z,101768.19
2022-10-12T15:12:14.316Z,101766.28
2022-10-12T15:14:42.637Z,101762.25
2022-10-12T15:17:14.011Z,101758.66
2022-10-12T15:19:42.868Z,101746.16
2022-10-12T15:22:11.553Z,101745.72
2022-10-12T15:24:39.220Z,101729.53
2022-10-12T15:27:06.892Z,101728.38
2022-10-12T15:29:34.541Z,101722.00
2022-10-12T15:32:05.490Z,101730.00
2022-10-12T15:34:34.502Z,101729.72
2022-10-12T15:37:07.959Z,101735.78
2022-10-12T15:39:36.633Z,101734.41
2022-10-12T15:42:04.961Z,101727.59
2022-10-12T15:44:32.756Z,101736.81
2022-10-12T15:47:00.748Z,101732.31
2022-10-12T15:49:29.962Z,101726.50
2022-10-12T15:51:58.988Z,101730.78
2022-10-12T15:54:26.835Z,101715.59
2022-10-12T15:56:54.530Z,101701.03
2022-10-12T15:59:22.231Z,101708.19
2022-10-12T16:01:49.912Z,101707.66
2022-10-12T16:04:17.653Z,101704.09
2022-10-12T16:06:45.331Z,101699.44
2022-10-12T16:09:14.322Z,101702.16
2022-10-12T16:11:42.088Z,101697.28
2022-10-12T16:14:10.851Z,101689.16
2022-10-12T16:16:38.479Z,101688.06
2022-10-12T16:19:06.133Z,101685.91
2022-10-12T16:21:33.958Z,101681.91
2022-10-12T16:24:01.603Z,101682.41
2022-10-12T16:26:31.439Z,101683.97
2022-10-12T16:28:59.206Z,101676.50
2022-10-12T16:31:26.897Z,101675.53
2022-10-12T16:33:54.556Z,101686.50
2022-10-12T16:36:22.217Z,101691.88
2022-10-12T16:38:49.880Z,101686.50
2022-10-12T16:41:18.559Z,101694.53
2022-10-12T16:43:47.592Z,101687.72
2022-10-12T16:46:15.282Z,101686.38
2022-10-12T16:48:43.877Z,101688.03
2022-10-12T16:51:13.078Z,101687.28
2022-10-12T16:53:42.128Z,101690.78
2022-10-12T16:56:09.802Z,101696.69
2022-10-12T16:58:37.468Z,101702.16
2022-10-12T17:01:13.561Z,101702.16
2022-10-12T17:03:41.699Z,101707.28
2022-10-12T17:06:09.804Z,101707.78
2022-10-12T17:08:39.183Z,101706.75
2022-10-12T17:11:08.297Z,101702.03
2022-10-12T17:13:37.162Z,101698.88
2022-10-12T17:16:27.230Z,101696.75
2022-10-12T17:18:59.489Z,101703.25
2022-10-12T17:21:28.186Z,101697.16
2022-10-12T17:23:56.857Z,101690.13
2022-10-12T17:26:25.720Z,101701.13
2022-10-12T17:28:53.446Z,101703.84
2022-10-12T17:31:21.136Z,101701.25
2022-10-12T17:33:49.018Z,101692.03
2022-10-12T17:36:18.401Z,101691.25
2022-10-12T17:38:46.068Z,101703.22
2022-10-12T17:41:13.714Z,101703.72
2022-10-12T17:43:41.431Z,101693.78
2022-10-12T17:46:09.496Z,101695.19
2022-10-12T17:48:37.158Z,101703.16
2022-10-12T17:51:09.466Z,101700.09
2022-10-12T17:53:38.804Z,101703.56
2022-10-12T17:56:07.989Z,101698.06
2022-10-12T17:58:36.264Z,101697.22
2022-10-12T18:01:06.306Z,101686.00
2022-10-12T18:03:34.249Z,101691.94
2022-10-12T18:06:05.241Z,101699.00
2022-10-12T18:08:33.027Z,101697.03
2022-10-12T18:11:08.440Z,101687.31
2022-10-12T18:13:37.627Z,101684.06
2022-10-12T18:16:10.228Z,101690.72
2022-10-12T18:18:37.941Z,101683.63
2022-10-12T18:21:06.940Z,101675.78
2022-10-12T18:23:34.610Z,101677.91
2022-10-12T18:26:05.143Z,101675.66
2022-10-12T18:28:33.692Z,101682.78
2022-10-12T18:31:02.519Z,101684.56
2022-10-12T18:33:30.296Z,101683.03
2022-10-12T18:36:03.976Z,101684.00
2022-10-12T18:38:31.704Z,101691.06
2022-10-12T18:41:05.009Z,101683.03
2022-10-12T18:43:32.848Z,101682.69
2022-10-12T18:46:00.532Z,101685.09
2022-10-12T18:48:28.172Z,101688.03
2022-10-12T18:50:55.861Z,101692.88
2022-10-12T18:53:27.084Z,101691.97
2022-10-12T18:55:54.811Z,101687.38
2022-10-12T18:58:23.811Z,101681.78
2022-10-12T19:00:52.072Z,101682.31
2022-10-12T19:03:19.814Z,101683.28
2022-10-12T19:05:47.506Z,101684.16
2022-10-12T19:08:15.472Z,101684.59
2022-10-12T19:10:43.260Z,101686.22
2022-10-12T19:13:10.916Z,101685.31
2022-10-12T19:15:39.967Z,101683.25
2022-10-12T19:18:07.629Z,101677.84
2022-10-12T19:20:37.232Z,101675.81
2022-10-12T19:23:04.947Z,101679.72
2022-10-12T19:25:32.639Z,101673.13
2022-10-12T19:28:00.316Z,101679.03
2022-10-12T19:30:29.539Z,101667.88
2022-10-12T19:32:58.541Z,101667.38
2022-10-12T19:35:28.557Z,101669.91
2022-10-12T19:37:56.320Z,101662.22
2022-10-12T19:40:23.987Z,101665.75
2022-10-12T19:42:51.664Z,101657.38
2022-10-12T19:45:19.340Z,101655.72
2022-10-12T19:47:46.997Z,101663.25
2022-10-12T19:50:16.029Z,101659.00
2022-10-12T19:52:43.684Z,101655.22
2022-10-12T19:55:11.703Z,101653.03
2022-10-12T19:57:39.363Z,101653.81
2022-10-12T20:00:08.619Z,101645.63
2022-10-12T20:02:36.689Z,101645.44
2022-10-12T20:05:09.535Z,101651.44
2022-10-12T20:07:38.854Z,101645.13
2022-10-12T20:10:07.943Z,101641.00
2022-10-12T20:12:35.698Z,101641.34
2022-10-12T20:15:04.537Z,101644.19
2022-10-12T20:17:32.305Z,101642.31
2022-10-12T20:20:00.001Z,101630.44
2022-10-12T20:22:27.773Z,101632.31
2022-10-12T20:24:56.806Z,101633.22
2022-10-12T20:27:24.777Z,101624.78
2022-10-12T20:29:52.485Z,101626.56
2022-10-12T20:32:20.386Z,101622.78
2022-10-12T20:34:52.092Z,101623.38
2022-10-12T20:37:22.612Z,101621.06
2022-10-12T20:39:52.554Z,101620.31
2022-10-12T20:42:22.363Z,101617.50
2022-10-12T20:44:50.292Z,101619.88
2022-10-12T20:47:18.530Z,101616.81
2022-10-12T20:49:46.258Z,101613.88
2022-10-12T20:52:14.013Z,101611.06
2022-10-12T20:54:41.685Z,101614.09
2022-10-12T20:57:09.377Z,101611.31
2022-10-12T20:59:38.372Z,101612.94
2022-10-12T21:02:06.012Z,101606.97
2022-10-12T21:04:38.147Z,101613.34
2022-10-12T21:07:06.094Z,101611.69
2022-10-12T21:09:39.289Z,101602.03
2022-10-12T21:12:07.052Z,101589.59
2022-10-12T21:14:34.966Z,101596.28
2022-10-12T21:17:07.389Z,101599.97
2022-10-12T21:19:35.378Z,101600.78
2022-10-12T21:22:05.303Z,101593.81
2022-10-12T21:24:33.117Z,101597.81
2022-10-12T21:27:00.816Z,101591.28
2022-10-12T21:29:28.973Z,101586.41
2022-10-12T21:31:56.616Z,101577.41
2022-10-12T21:34:25.605Z,101579.88
2022-10-12T21:36:53.842Z,101577.78
2022-10-12T21:39:21.560Z,101580.63
2022-10-12T21:41:49.209Z,101575.78
2022-10-12T21:44:16.857Z,101580.13
2022-10-12T21:46:44.507Z,101579.31
2022-10-12T21:49:12.383Z,101577.44
2022-10-12T21:51:41.623Z,101578.16
2022-10-12T21:54:09.310Z,101576.75
2022-10-12T21:56:38.036Z,101576.75
2022-10-12T21:59:06.607Z,101583.31
2022-10-12T22:01:36.440Z,101575.22
2022-10-12T22:04:06.812Z,101579.88
2022-10-12T22:06:34.971Z,101570.47
2022-10-12T22:09:06.192Z,101577.69
2022-10-12T22:11:35.157Z,101573.69
2022-10-12T22:14:09.120Z,101573.41
2022-10-12T22:16:37.203Z,101570.38
2022-10-12T22:19:07.584Z,101567.69
2022-10-12T22:21:36.111Z,101551.59
2022-10-12T22:24:06.271Z,101553.50
2022-10-12T22:26:35.092Z,101554.41
2022-10-12T22:29:05.099Z,101547.28
2022-10-12T22:31:32.761Z,101552.09
2022-10-12T22:34:00.412Z,101562.19
2022-10-12T22:36:29.604Z,101561.84
2022-10-12T22:38:57.242Z,101554.41
2022-10-12T22:41:26.708Z,101550.22
2022-10-12T22:43:56.188Z,101546.94
2022-10-12T22:46:25.944Z,101547.31
2022-10-12T22:48:54.145Z,101547.06
2022-10-12T22:51:23.378Z,101543.41
2022-10-12T22:53:51.151Z,101539.09
2022-10-12T22:56:19.600Z,101540.75
2022-10-12T22:58:48.948Z,101542.63
2022-10-12T23:01:18.048Z,101537.34
2022-10-12T23:03:46.109Z,101545.78
2022-10-12T23:06:15.196Z,101545.09
2022-10-12T23:08:42.989Z,101544.66
2022-10-12T23:11:12.296Z,101543.69
2022-10-12T23:13:40.704Z,101537.59
2022-10-12T23:16:12.907Z,101542.66
2022-10-12T23:18:41.414Z,101533.47
2022-10-12T23:21:10.977Z,101536.91
2022-10-12T23:23:40.380Z,101537.13
2022-10-12T23:26:10.451Z,101532.56
2022-10-12T23:28:38.541Z,101526.56
2022-10-12T23:31:07.546Z,101534.78
2022-10-12T23:33:36.554Z,101528.47
2022-10-12T23:36:06.120Z,101516.63
2022-10-12T23:38:34.988Z,101527.19
2022-10-12T23:41:03.201Z,101511.13
2022-10-12T23:43:31.164Z,101517.47
2022-10-12T23:45:58.872Z,101517.47
2022-10-12T23:48:27.084Z,101505.72
2022-10-12T23:50:56.275Z,101502.81
2022-10-12T23:53:25.643Z,101504.09
2022-10-12T23:55:53.751Z,101500.78
2022-10-12T23:58:21.808Z,101500.94
